Time;durP1;ratioP1;P1;durP2;ratioP2;P2;SDS_P1;SDS_P2;PMS_P1;PMS_P2;Temp;Humidity;BMP_temperature;BMP_pressure;BME280_temperature;BME280_humidity;BME280_pressure;Samples;Min_cycle;Max_cycle;Signal;HPM_P1;HPM_P2
2020/12/25 00:01:27;;;;;;;9.88;2.30;;;7.20;62.90;;;;;;5007078;28;21970;-59
2020/12/25 00:03:55;;;;;;;9.50;1.73;;;7.10;62.80;;;;;;5006636;28;20231;-62
2020/12/25 00:06:21;;;;;;;8.68;1.90;;;7.10;62.60;;;;;;5009322;28;20084;-59
2020/12/25 00:08:47;;;;;;;12.93;1.85;;;7.00;62.60;;;;;;5004295;28;20552;-60
2020/12/25 00:11:12;;;;;;;11.80;1.70;;;7.00;62.50;;;;;;5004218;28;20040;-59
2020/12/25 00:13:38;;;;;;;16.00;2.60;;;7.00;62.60;;;;;;5006678;28;20383;-59
2020/12/25 00:16:04;;;;;;;10.18;2.03;;;6.90;62.60;;;;;;5012120;28;20045;-59
2020/12/25 00:18:29;;;;;;;12.70;1.92;;;6.90;62.80;;;;;;5013212;28;20044;-59
2020/12/25 00:20:55;;;;;;;10.55;2.08;;;6.90;62.90;;;;;;5010027;28;20038;-59
2020/12/25 00:23:21;;;;;;;18.27;1.85;;;6.80;62.90;;;;;;5013655;28;20045;-60
2020/12/25 00:25:47;;;;;;;9.95;2.13;;;6.80;62.80;;;;;;5009719;28;20045;-59
2020/12/25 00:28:13;;;;;;;12.93;2.08;;;6.80;62.80;;;;;;5004850;28;20191;-59
2020/12/25 00:30:43;;;;;;;12.43;2.05;;;6.80;62.80;;;;;;5007790;28;20042;-59
2020/12/25 00:33:09;;;;;;;23.35;2.30;;;6.80;63.00;;;;;;5007857;28;20079;-59
2020/12/25 00:35:35;;;;;;;12.65;2.00;;;6.80;63.00;;;;;;5005431;28;20061;-59
2020/12/25 00:38:00;;;;;;;17.00;2.17;;;6.70;63.10;;;;;;5004733;28;24089;-59
2020/12/25 00:40:26;;;;;;;15.60;2.42;;;6.70;63.20;;;;;;5007281;28;20088;-59
2020/12/25 00:42:51;;;;;;;8.57;1.50;;;6.70;63.30;;;;;;5008909;28;20464;-59
2020/12/25 00:45:18;;;;;;;10.52;1.90;;;6.70;63.30;;;;;;5004894;28;20045;-59
2020/12/25 00:47:44;;;;;;;10.35;1.92;;;6.70;63.20;;;;;;5009905;28;20779;-60
2020/12/25 00:50:10;;;;;;;12.80;2.00;;;6.70;63.20;;;;;;5010231;28;20064;-59
2020/12/25 00:52:35;;;;;;;10.05;1.90;;;6.70;63.20;;;;;;5009578;28;20075;-59
2020/12/25 00:55:01;;;;;;;14.82;2.15;;;6.70;63.30;;;;;;5015425;28;20144;-59
2020/12/25 00:57:27;;;;;;;9.27;1.90;;;6.70;63.20;;;;;;5014560;28;20038;-59
2020/12/25 00:59:52;;;;;;;7.60;1.45;;;6.70;63.20;;;;;;5010555;28;20462;-59
2020/12/25 01:02:18;;;;;;;6.47;1.67;;;6.70;63.20;;;;;;5008772;28;20053;-59
2020/12/25 01:04:43;;;;;;;16.17;2.08;;;6.60;63.20;;;;;;5011771;28;20037;-59
2020/12/25 01:07:09;;;;;;;6.78;1.45;;;6.60;64.00;;;;;;5015148;28;20128;-59
2020/12/25 01:09:35;;;;;;;11.25;2.10;;;6.70;63.60;;;;;;5009361;28;20038;-59
2020/12/25 01:12:02;;;;;;;11.32;1.63;;;6.70;63.50;;;;;;5008513;28;20132;-59
2020/12/25 01:14:29;;;;;;;8.25;1.70;;;6.70;63.60;;;;;;5012879;28;20034;-59
2020/12/25 01:16:56;;;;;;;9.18;1.67;;;6.70;63.60;;;;;;5016972;28;20057;-59
2020/12/25 01:19:23;;;;;;;7.47;1.38;;;6.70;63.70;;;;;;5012491;28;20121;-60
2020/12/25 01:21:49;;;;;;;17.02;2.30;;;6.70;63.70;;;;;;5006235;28;20040;-59
2020/12/25 01:24:15;;;;;;;14.52;1.77;;;6.70;63.70;;;;;;5013994;28;20030;-59
2020/12/25 01:26:40;;;;;;;11.80;2.47;;;6.70;63.80;;;;;;5009268;28;20123;-59
2020/12/25 01:29:06;;;;;;;10.57;1.70;;;6.70;63.80;;;;;;5011375;28;20046;-58
2020/12/25 01:31:32;;;;;;;11.13;1.67;;;6.70;63.80;;;;;;5008760;28;20061;-59
2020/12/25 01:33:58;;;;;;;17.75;1.60;;;6.70;63.80;;;;;;5006316;28;20513;-59
2020/12/25 01:36:24;;;;;;;7.78;1.50;;;6.70;63.80;;;;;;5010628;28;20043;-59
2020/12/25 01:38:49;;;;;;;16.27;1.42;;;6.70;63.80;;;;;;5013024;28;20048;-59
2020/12/25 01:41:15;;;;;;;7.05;1.40;;;6.70;63.80;;;;;;5014992;28;20536;-59
2020/12/25 01:43:40;;;;;;;8.13;1.25;;;6.80;63.80;;;;;;5010536;28;20042;-57
2020/12/25 01:46:07;;;;;;;11.50;1.63;;;6.80;63.70;;;;;;5010939;28;20061;-57
2020/12/25 01:48:33;;;;;;;6.30;1.35;;;6.80;63.70;;;;;;5011970;28;20045;-58
2020/12/25 01:50:59;;;;;;;11.38;1.55;;;6.80;63.70;;;;;;5007560;28;20039;-57
2020/12/25 01:53:26;;;;;;;11.50;1.92;;;6.80;63.60;;;;;;5013643;28;20073;-57
2020/12/25 01:55:53;;;;;;;9.18;2.25;;;6.80;63.60;;;;;;5014214;28;20041;-57
2020/12/25 01:58:20;;;;;;;3.85;1.20;;;6.80;63.60;;;;;;5011455;28;20034;-56
2020/12/25 02:00:47;;;;;;;5.32;1.30;;;6.70;63.40;;;;;;5004539;28;20800;-57
2020/12/25 02:03:14;;;;;;;7.45;1.50;;;6.80;63.40;;;;;;5009078;28;20045;-57
2020/12/25 02:05:42;;;;;;;10.85;1.83;;;6.70;63.30;;;;;;5010005;28;20036;-58
2020/12/25 02:08:08;;;;;;;11.65;1.50;;;6.70;63.40;;;;;;5013028;28;20564;-58
2020/12/25 02:10:36;;;;;;;14.90;2.17;;;6.70;63.30;;;;;;5012470;28;20054;-59
2020/12/25 02:13:02;;;;;;;12.75;2.35;;;6.70;63.30;;;;;;5011194;28;20041;-58
2020/12/25 02:15:28;;;;;;;6.93;1.48;;;6.70;63.20;;;;;;5013232;28;20052;-58
2020/12/25 02:17:54;;;;;;;6.22;1.33;;;6.70;63.20;;;;;;5013980;28;20045;-58
2020/12/25 02:20:19;;;;;;;9.23;1.83;;;6.70;63.20;;;;;;5007536;28;20037;-58
2020/12/25 02:22:45;;;;;;;5.60;1.40;;;6.70;63.20;;;;;;5009421;28;20048;-58
2020/12/25 02:25:11;;;;;;;9.60;1.55;;;6.70;63.00;;;;;;5008766;28;20124;-58
2020/12/25 02:27:37;;;;;;;5.10;1.42;;;6.70;63.00;;;;;;5008582;28;20049;-59
2020/12/25 02:30:05;;;;;;;8.98;1.60;;;6.70;62.90;;;;;;5005748;28;20037;-58
2020/12/25 02:32:32;;;;;;;8.52;1.40;;;6.70;62.80;;;;;;5014334;28;20072;-58
2020/12/25 02:34:57;;;;;;;6.60;1.10;;;6.70;62.80;;;;;;5010135;28;20045;-58
2020/12/25 02:37:25;;;;;;;11.88;1.42;;;6.70;62.60;;;;;;5007712;28;20071;-58
2020/12/25 02:39:51;;;;;;;19.55;1.73;;;6.70;62.60;;;;;;5011631;28;20057;-59
2020/12/25 02:42:16;;;;;;;7.15;1.40;;;6.60;62.60;;;;;;5011108;28;20124;-58
2020/12/25 02:44:43;;;;;;;8.95;1.40;;;6.70;62.60;;;;;;5009578;28;20629;-58
2020/12/25 02:47:09;;;;;;;9.73;1.10;;;6.60;62.50;;;;;;5005590;28;20115;-58
2020/12/25 02:49:34;;;;;;;8.15;1.48;;;6.60;62.50;;;;;;5041891;22;20048;-64
2020/12/25 02:52:00;;;;;;;12.95;1.35;;;6.60;62.50;;;;;;5046204;28;20063;-66
2020/12/25 02:54:25;;;;;;;10.23;1.40;;;6.60;62.40;;;;;;5051991;28;20043;-66
2020/12/25 02:56:51;;;;;;;5.00;1.13;;;6.60;62.40;;;;;;5048761;28;20033;-66
2020/12/25 02:59:17;;;;;;;10.93;1.63;;;6.50;62.20;;;;;;5047098;28;20524;-66
2020/12/25 03:01:42;;;;;;;8.35;1.52;;;6.50;62.20;;;;;;5047935;28;20030;-66
2020/12/25 03:04:08;;;;;;;12.80;1.40;;;6.50;62.10;;;;;;5042180;28;20643;-66
2020/12/25 03:06:34;;;;;;;7.75;1.98;;;6.40;62.00;;;;;;5035749;28;20110;-66
2020/12/25 03:09:00;;;;;;;9.88;3.08;;;6.40;62.00;;;;;;5048954;28;20048;-66
2020/12/25 03:11:25;;;;;;;12.30;2.78;;;6.40;61.80;;;;;;5042535;28;20544;-66
2020/12/25 03:13:51;;;;;;;12.40;2.60;;;6.30;61.80;;;;;;5048097;28;20086;-66
2020/12/25 03:16:17;;;;;;;8.80;1.95;;;6.30;61.80;;;;;;5049053;28;20086;-66
2020/12/25 03:18:45;;;;;;;4.38;1.58;;;6.30;61.70;;;;;;5045664;28;20045;-66
2020/12/25 03:21:10;;;;;;;8.85;1.40;;;6.20;61.60;;;;;;5041903;28;20536;-66
2020/12/25 03:23:36;;;;;;;12.65;1.77;;;6.20;61.60;;;;;;5044408;28;20048;-67
2020/12/25 03:26:04;;;;;;;10.20;1.88;;;6.10;61.70;;;;;;5045541;28;20161;-67
2020/12/25 03:28:30;;;;;;;8.88;1.50;;;6.10;61.70;;;;;;5046602;28;20430;-67
2020/12/25 03:30:55;;;;;;;4.32;1.55;;;6.10;61.60;;;;;;5045340;28;20036;-67
2020/12/25 03:33:21;;;;;;;9.10;1.55;;;6.00;61.70;;;;;;5047036;28;20037;-67
2020/12/25 03:35:47;;;;;;;9.45;1.30;;;6.00;61.70;;;;;;5054047;28;20067;-67
2020/12/25 03:38:13;;;;;;;8.77;2.15;;;6.00;61.70;;;;;;5047367;28;20551;-67
2020/12/25 03:40:38;;;;;;;6.85;1.88;;;5.90;61.60;;;;;;5050054;28;20036;-67
2020/12/25 03:43:04;;;;;;;8.52;1.27;;;5.90;61.50;;;;;;5044720;28;20115;-67
2020/12/25 03:45:32;;;;;;;11.57;1.42;;;5.80;61.50;;;;;;5049061;28;20040;-67
2020/12/25 03:48:00;;;;;;;6.95;1.20;;;5.80;61.60;;;;;;5054435;28;20047;-67
2020/12/25 03:50:27;;;;;;;5.80;1.40;;;5.80;61.50;;;;;;5047135;28;20494;-67
2020/12/25 03:52:52;;;;;;;11.07;1.25;;;5.70;61.50;;;;;;5046346;28;20117;-67
2020/12/25 03:55:18;;;;;;;4.65;1.08;;;5.60;61.40;;;;;;5048337;28;20123;-67
2020/12/25 03:57:44;;;;;;;4.70;1.23;;;5.60;61.50;;;;;;5033092;28;20089;-67
2020/12/25 04:00:10;;;;;;;3.72;1.10;;;5.50;61.50;;;;;;5041455;28;20075;-67
2020/12/25 04:02:35;;;;;;;5.40;1.40;;;5.50;61.60;;;;;;5043996;28;20025;-67
2020/12/25 04:05:01;;;;;;;4.95;1.50;;;5.40;61.50;;;;;;5043565;28;20041;-67
2020/12/25 04:07:26;;;;;;;7.00;1.48;;;5.40;61.60;;;;;;5045556;28;20040;-67
2020/12/25 04:09:52;;;;;;;13.30;1.40;;;5.40;61.70;;;;;;5049477;28;20036;-67
2020/12/25 04:12:18;;;;;;;9.38;1.75;;;5.40;61.90;;;;;;5040094;28;20062;-67
2020/12/25 04:14:43;;;;;;;7.25;1.20;;;5.30;62.00;;;;;;5046729;28;20036;-67
2020/12/25 04:17:09;;;;;;;7.07;1.63;;;5.30;62.00;;;;;;5048494;28;20043;-67
2020/12/25 04:19:34;;;;;;;10.75;1.98;;;5.30;62.10;;;;;;5048371;28;20059;-67
2020/12/25 04:22:00;;;;;;;7.20;1.67;;;5.30;62.00;;;;;;5043058;28;20187;-67
2020/12/25 04:24:26;;;;;;;9.25;1.27;;;5.20;62.00;;;;;;5041823;28;20578;-67
2020/12/25 04:26:51;;;;;;;8.48;1.27;;;5.20;61.90;;;;;;5044958;28;20512;-67
2020/12/25 04:29:17;;;;;;;6.53;1.30;;;5.20;61.90;;;;;;5045156;28;20033;-67
2020/12/25 04:31:43;;;;;;;16.67;2.13;;;5.20;62.00;;;;;;5039458;28;20040;-67
2020/12/25 04:34:08;;;;;;;9.02;1.65;;;5.20;62.20;;;;;;5046140;28;20111;-67
2020/12/25 04:36:34;;;;;;;11.93;1.40;;;5.20;62.30;;;;;;5045467;28;20045;-67
2020/12/25 04:39:00;;;;;;;8.82;1.60;;;5.20;62.30;;;;;;5045609;28;20032;-67
2020/12/25 04:41:25;;;;;;;9.00;1.58;;;5.20;62.20;;;;;;5040266;28;20060;-67
2020/12/25 04:43:52;;;;;;;6.85;1.38;;;5.10;62.20;;;;;;5049581;28;20062;-67
2020/12/25 04:46:18;;;;;;;11.75;1.52;;;5.10;62.20;;;;;;5047787;28;20040;-66
2020/12/25 04:48:44;;;;;;;14.18;1.48;;;5.10;62.20;;;;;;5049658;28;20041;-66
2020/12/25 04:51:10;;;;;;;13.35;1.90;;;5.10;62.40;;;;;;5049543;28;20032;-66
2020/12/25 04:53:36;;;;;;;14.45;2.17;;;5.10;62.50;;;;;;5048724;28;20079;-67
2020/12/25 04:56:02;;;;;;;15.18;2.10;;;5.10;62.60;;;;;;5049990;28;20037;-67
2020/12/25 04:58:27;;;;;;;20.45;2.42;;;5.20;63.00;;;;;;5050784;28;20493;-67
2020/12/25 05:01:06;;;;;;;9.13;2.08;;;5.30;63.30;;;;;;5047791;28;20052;-67
2020/12/25 05:03:35;;;;;;;12.27;1.95;;;5.40;63.50;;;;;;5047639;28;20032;-67
2020/12/25 05:06:14;;;;;;;16.00;2.35;;;5.50;63.50;;;;;;5047787;28;20048;-67
2020/12/25 05:08:44;;;;;;;11.27;1.98;;;5.60;63.50;;;;;;5034155;28;20041;-67
2020/12/25 05:11:10;;;;;;;11.73;1.90;;;5.60;63.40;;;;;;5047250;28;20039;-67
2020/12/25 05:13:53;;;;;;;8.32;1.85;;;5.70;63.20;;;;;;5031430;28;20119;-67
2020/12/25 05:16:23;;;;;;;14.77;2.17;;;5.70;63.00;;;;;;5042359;28;20033;-67
2020/12/25 05:18:50;;;;;;;18.75;2.30;;;5.70;62.80;;;;;;5048751;28;20048;-67
2020/12/25 05:21:18;;;;;;;17.00;2.35;;;5.70;62.90;;;;;;5030374;28;20045;-67
2020/12/25 05:23:46;;;;;;;11.02;2.15;;;5.60;63.10;;;;;;5049437;28;20397;-67
2020/12/25 05:26:13;;;;;;;4.88;1.92;;;5.70;63.30;;;;;;5045521;28;20131;-67
2020/12/25 05:28:42;;;;;;;8.50;2.40;;;5.70;63.50;;;;;;5048601;28;20071;-67
2020/12/25 05:31:08;;;;;;;14.48;3.17;;;5.70;63.40;;;;;;5046189;28;20804;-67
2020/12/25 05:33:37;;;;;;;17.48;2.17;;;5.70;63.40;;;;;;5051998;28;20048;-67
2020/12/25 05:36:12;;;;;;;8.57;1.98;;;5.80;63.40;;;;;;5049619;28;20040;-67
2020/12/25 05:38:40;;;;;;;12.43;2.38;;;5.80;63.40;;;;;;5056755;28;20028;-67
2020/12/25 05:41:07;;;;;;;17.27;2.13;;;5.80;63.40;;;;;;5052122;28;20036;-67
2020/12/25 05:43:33;;;;;;;18.45;2.00;;;5.90;63.50;;;;;;5055348;28;20036;-67
2020/12/25 05:45:59;;;;;;;17.17;2.35;;;5.90;63.50;;;;;;5040929;28;20029;-66
2020/12/25 05:48:25;;;;;;;7.47;1.55;;;6.00;63.50;;;;;;5053322;28;20062;-67
2020/12/25 05:50:51;;;;;;;12.10;2.05;;;6.00;63.30;;;;;;5053611;28;20715;-67
2020/12/25 05:53:18;;;;;;;25.42;2.38;;;6.00;63.20;;;;;;5055091;28;20037;-66
2020/12/25 05:55:44;;;;;;;10.73;1.88;;;6.00;63.20;;;;;;5055580;28;20509;-67
2020/12/25 05:58:12;;;;;;;13.55;2.03;;;6.00;63.20;;;;;;5053723;28;20149;-66
2020/12/25 06:00:41;;;;;;;14.60;2.22;;;6.00;63.10;;;;;;5043672;28;20047;-67
2020/12/25 06:03:11;;;;;;;14.85;2.17;;;6.00;63.00;;;;;;5049776;28;20028;-67
2020/12/25 06:05:41;;;;;;;13.32;2.10;;;6.00;63.10;;;;;;5052577;28;20072;-67
2020/12/25 06:08:18;;;;;;;14.80;1.85;;;6.10;63.10;;;;;;5044098;28;20037;-67
2020/12/25 06:10:45;;;;;;;9.30;2.13;;;6.10;63.20;;;;;;5047304;28;20035;-67
2020/12/25 06:13:15;;;;;;;15.80;2.47;;;6.10;63.10;;;;;;5047807;28;20451;-67
2020/12/25 06:15:47;;;;;;;8.40;1.40;;;6.10;63.10;;;;;;5056683;28;20040;-66
2020/12/25 06:18:44;;;;;;;11.80;2.20;;;6.00;63.00;;;;;;5053532;28;20092;-66
2020/12/25 06:21:18;;;;;;;15.20;2.30;;;6.00;62.90;;;;;;5050042;28;23750;-66
2020/12/25 06:23:44;;;;;;;8.02;2.03;;;6.00;62.90;;;;;;5041729;28;20051;-67
2020/12/25 06:26:09;;;;;;;16.67;2.47;;;6.00;63.00;;;;;;5031235;28;20033;-66
2020/12/25 06:28:41;;;;;;;8.13;1.42;;;5.90;63.00;;;;;;5048070;28;20074;-66
2020/12/25 06:31:33;;;;;;;8.90;1.77;;;5.90;63.00;;;;;;5039344;28;20393;-66
2020/12/25 06:34:04;;;;;;;7.15;1.75;;;5.90;63.00;;;;;;5047195;28;20516;-67
2020/12/25 06:36:30;;;;;;;11.50;1.67;;;5.90;63.00;;;;;;5050213;28;20841;-67
2020/12/25 06:39:03;;;;;;;10.60;2.40;;;5.80;63.10;;;;;;5049056;28;20040;-67
2020/12/25 06:41:28;;;;;;;17.35;2.22;;;5.80;63.20;;;;;;5049769;28;20067;-67
2020/12/25 06:43:55;;;;;;;8.02;2.58;;;5.90;63.40;;;;;;5049963;28;20159;-67
2020/12/25 06:46:28;;;;;;;19.60;3.10;;;5.90;63.50;;;;;;5044934;28;20657;-66
2020/12/25 06:48:58;;;;;;;14.68;2.88;;;5.90;63.50;;;;;;5047835;28;20079;-66
2020/12/25 06:51:26;;;;;;;15.00;2.70;;;6.00;63.60;;;;;;5044878;28;20132;-66
2020/12/25 06:53:55;;;;;;;14.18;3.03;;;6.00;64.40;;;;;;5050061;28;20036;-66
2020/12/25 06:56:21;;;;;;;17.88;2.80;;;6.10;63.80;;;;;;5050196;28;20067;-66
2020/12/25 06:58:52;;;;;;;12.50;2.58;;;6.20;63.90;;;;;;5037339;28;20494;-66
2020/12/25 07:01:36;;;;;;;7.55;2.53;;;6.20;63.80;;;;;;5043913;28;20625;-66
2020/12/25 07:04:03;;;;;;;16.45;2.90;;;6.20;63.80;;;;;;5046858;28;20044;-66
2020/12/25 07:06:33;;;;;;;12.95;2.80;;;6.30;63.80;;;;;;5024290;28;20048;-66
2020/12/25 07:09:10;;;;;;;15.82;3.25;;;6.30;63.90;;;;;;5044592;28;20229;-66
2020/12/25 07:11:39;;;;;;;11.93;2.60;;;6.30;63.90;;;;;;5039687;28;20045;-66
2020/12/25 07:14:04;;;;;;;13.80;2.80;;;6.40;63.90;;;;;;5041221;28;20044;-66
2020/12/25 07:16:31;;;;;;;10.43;2.47;;;6.40;63.90;;;;;;5038105;28;20374;-66
2020/12/25 07:18:56;;;;;;;12.63;2.60;;;6.40;63.90;;;;;;5040038;28;20531;-67
2020/12/25 07:21:22;;;;;;;11.73;2.55;;;6.40;64.00;;;;;;5027775;28;20045;-66
2020/12/25 07:23:48;;;;;;;15.15;2.80;;;6.40;64.00;;;;;;5052380;28;20044;-66
2020/12/25 07:26:14;;;;;;;13.27;3.13;;;6.50;64.10;;;;;;5052549;28;20060;-66
2020/12/25 07:28:41;;;;;;;10.82;2.92;;;6.50;64.10;;;;;;5053929;28;20386;-66
2020/12/25 07:31:06;;;;;;;15.43;2.97;;;6.50;64.20;;;;;;5034937;28;20066;-66
2020/12/25 07:33:32;;;;;;;13.63;2.97;;;6.60;64.10;;;;;;5039949;28;20041;-66
2020/12/25 07:35:58;;;;;;;13.43;3.10;;;6.60;64.10;;;;;;5054160;28;20040;-66
2020/12/25 07:38:25;;;;;;;16.23;3.35;;;6.60;64.00;;;;;;5051636;28;20560;-66
2020/12/25 07:40:51;;;;;;;15.85;3.20;;;6.60;63.80;;;;;;5050454;28;20521;-66
2020/12/25 07:43:16;;;;;;;19.60;3.33;;;6.60;63.60;;;;;;5051659;28;20064;-66
2020/12/25 07:45:42;;;;;;;8.77;2.45;;;6.50;63.40;;;;;;5052383;28;20067;-66
2020/12/25 07:48:08;;;;;;;12.02;2.60;;;6.50;63.40;;;;;;5048173;28;20399;-66
2020/12/25 07:50:36;;;;;;;6.43;2.20;;;6.40;63.30;;;;;;5048927;28;20032;-66
2020/12/25 07:53:16;;;;;;;14.82;2.97;;;6.40;63.30;;;;;;5047505;28;20121;-66
2020/12/25 07:55:47;;;;;;;9.45;2.58;;;6.30;63.40;;;;;;5051185;28;20036;-66
2020/12/25 07:58:17;;;;;;;7.75;2.05;;;6.30;63.40;;;;;;5054035;28;20033;-66
2020/12/25 08:00:47;;;;;;;10.80;2.15;;;6.30;63.50;;;;;;5048555;28;22061;-66
2020/12/25 08:03:13;;;;;;;18.13;2.67;;;6.30;63.60;;;;;;5046935;28;20041;-66
2020/12/25 08:05:39;;;;;;;12.27;2.30;;;6.30;63.60;;;;;;5055480;28;20128;-66
2020/12/25 08:08:05;;;;;;;15.85;3.00;;;6.30;63.90;;;;;;5049716;28;20033;-66
2020/12/25 08:10:33;;;;;;;10.13;2.60;;;6.40;64.10;;;;;;5051909;28;20049;-66
2020/12/25 08:13:00;;;;;;;15.70;3.00;;;6.40;64.10;;;;;;5048487;28;20028;-66
2020/12/25 08:15:26;;;;;;;8.82;2.95;;;6.50;64.20;;;;;;5055068;28;20029;-66
2020/12/25 08:17:53;;;;;;;12.15;2.90;;;6.50;64.10;;;;;;5050547;28;20051;-66
2020/12/25 08:20:22;;;;;;;14.95;2.90;;;6.50;64.00;;;;;;5054061;28;20040;-66
2020/12/25 08:22:47;;;;;;;14.52;3.00;;;6.50;63.90;;;;;;5056984;28;20037;-66
2020/12/25 08:25:14;;;;;;;10.43;2.50;;;6.50;63.80;;;;;;5056836;28;20041;-66
2020/12/25 08:27:41;;;;;;;10.48;2.33;;;6.40;63.60;;;;;;5055708;28;20419;-66
2020/12/25 08:30:07;;;;;;;13.60;2.65;;;6.40;63.30;;;;;;5054098;28;20067;-66
2020/12/25 08:32:33;;;;;;;20.20;2.40;;;6.30;63.10;;;;;;5055570;28;20120;-66
2020/12/25 08:35:13;;;;;;;9.10;2.05;;;6.20;63.00;;;;;;5055404;28;20039;-66
2020/12/25 08:37:49;;;;;;;8.13;2.22;;;6.20;63.10;;;;;;5056814;28;20063;-66
2020/12/25 08:40:16;;;;;;;13.55;2.72;;;6.10;63.10;;;;;;5055168;28;20048;-66
2020/12/25 08:42:42;;;;;;;14.73;2.13;;;6.10;63.10;;;;;;5056028;28;20045;-67
2020/12/25 08:45:10;;;;;;;15.43;2.58;;;6.10;63.20;;;;;;5055918;28;20401;-66
2020/12/25 08:47:36;;;;;;;12.32;2.67;;;6.00;63.90;;;;;;5055789;28;20033;-66
2020/12/25 08:50:02;;;;;;;9.80;2.38;;;6.00;63.20;;;;;;5051443;28;20643;-66
2020/12/25 08:52:29;;;;;;;12.00;2.10;;;6.00;63.20;;;;;;5056172;28;20029;-66
2020/12/25 08:54:58;;;;;;;17.77;2.42;;;6.00;63.40;;;;;;5050214;28;20032;-67
2020/12/25 08:57:24;;;;;;;4.55;2.15;;;6.00;63.40;;;;;;5056544;28;20148;-66
2020/12/25 09:00:07;;;;;;;6.90;2.50;;;6.00;63.40;;;;;;5054423;28;20037;-67
2020/12/25 09:02:32;;;;;;;7.05;2.25;;;6.00;63.50;;;;;;5055947;28;20029;-66
2020/12/25 09:04:58;;;;;;;12.52;2.65;;;6.00;63.50;;;;;;5055007;28;20041;-66
2020/12/25 09:07:23;;;;;;;11.00;2.83;;;6.00;63.50;;;;;;5055842;28;20066;-66
2020/12/25 09:09:49;;;;;;;6.63;2.60;;;6.00;63.60;;;;;;5047873;28;20025;-66
2020/12/25 09:12:15;;;;;;;12.30;2.85;;;6.00;63.60;;;;;;5057174;28;20421;-66
2020/12/25 09:14:40;;;;;;;13.95;3.50;;;6.00;63.70;;;;;;5061816;28;20327;-66
2020/12/25 09:17:06;;;;;;;10.75;4.57;;;6.00;63.80;;;;;;5061359;28;20048;-66
2020/12/25 09:19:31;;;;;;;8.10;3.60;;;6.10;63.90;;;;;;5059710;28;20791;-66
2020/12/25 09:21:57;;;;;;;14.70;4.38;;;6.10;64.00;;;;;;5056850;28;20648;-66
2020/12/25 09:24:22;;;;;;;13.70;3.55;;;6.10;64.20;;;;;;5056152;28;20044;-66
2020/12/25 09:26:48;;;;;;;17.50;4.68;;;6.20;64.30;;;;;;5058094;28;20029;-66
2020/12/25 09:29:14;;;;;;;12.38;3.83;;;6.20;64.30;;;;;;5054705;28;20049;-66
2020/12/25 09:31:39;;;;;;;10.20;4.30;;;6.30;64.30;;;;;;5058780;28;20071;-66
2020/12/25 09:34:05;;;;;;;17.15;4.47;;;6.30;64.30;;;;;;5061372;28;20064;-66
2020/12/25 09:36:30;;;;;;;15.48;4.13;;;6.40;64.50;;;;;;5058336;28;20519;-66
2020/12/25 09:38:56;;;;;;;15.40;5.07;;;6.40;64.50;;;;;;5059098;28;20036;-66
2020/12/25 09:41:21;;;;;;;14.18;5.05;;;6.50;64.60;;;;;;5056339;28;20039;-66
2020/12/25 09:43:47;;;;;;;19.70;5.18;;;6.50;64.60;;;;;;5058506;28;20043;-66
2020/12/25 09:46:13;;;;;;;14.35;5.22;;;6.60;64.60;;;;;;5058034;28;20068;-66
2020/12/25 09:48:38;;;;;;;12.00;4.82;;;6.70;64.70;;;;;;5059241;28;20037;-66
2020/12/25 09:51:04;;;;;;;12.73;5.35;;;6.70;64.60;;;;;;5053253;28;20039;-67
2020/12/25 09:53:30;;;;;;;19.63;5.85;;;6.80;64.80;;;;;;5055469;28;20041;-66
2020/12/25 09:55:56;;;;;;;18.45;4.88;;;6.80;64.80;;;;;;5042430;28;20382;-66
2020/12/25 09:58:21;;;;;;;15.02;5.20;;;6.90;64.90;;;;;;5054345;28;20040;-66
2020/12/25 10:00:47;;;;;;;19.50;5.60;;;6.90;64.90;;;;;;5055376;28;20120;-66
2020/12/25 10:03:12;;;;;;;14.02;4.18;;;6.90;64.80;;;;;;5055188;28;20047;-66
2020/12/25 10:05:38;;;;;;;16.48;4.97;;;7.00;65.00;;;;;;5054507;28;20045;-66
2020/12/25 10:08:03;;;;;;;12.07;4.75;;;7.10;65.30;;;;;;5043816;28;20129;-66
2020/12/25 10:10:29;;;;;;;16.42;5.35;;;7.30;65.60;;;;;;5042021;28;20448;-66
2020/12/25 10:12:55;;;;;;;13.38;5.97;;;7.50;66.20;;;;;;5055500;28;20047;-66
2020/12/25 10:15:21;;;;;;;11.13;5.13;;;8.00;68.20;;;;;;5054134;28;20033;-66
2020/12/25 10:17:47;;;;;;;18.48;5.05;;;8.80;68.40;;;;;;5051402;28;20520;-66
2020/12/25 10:20:13;;;;;;;15.07;5.70;;;9.50;68.90;;;;;;5050543;28;20044;-66
2020/12/25 10:22:38;;;;;;;14.48;5.88;;;10.40;68.10;;;;;;5055718;28;20037;-66
2020/12/25 10:25:04;;;;;;;10.00;3.50;;;11.30;67.00;;;;;;5053142;28;20039;-66
2020/12/25 10:27:29;;;;;;;8.90;3.60;;;12.00;64.90;;;;;;5053730;28;20056;-66
2020/12/25 10:29:55;;;;;;;6.13;3.13;;;12.60;63.90;;;;;;5050659;28;20032;-66
2020/12/25 10:32:21;;;;;;;11.70;3.33;;;13.00;61.60;;;;;;5053692;28;20987;-66
2020/12/25 10:34:46;;;;;;;6.00;2.70;;;13.30;61.00;;;;;;5052653;28;20220;-66
2020/12/25 10:37:12;;;;;;;4.93;2.15;;;13.70;60.80;;;;;;5052140;28;20025;-66
2020/12/25 10:39:38;;;;;;;6.57;2.10;;;13.90;59.60;;;;;;5054933;28;20035;-66
2020/12/25 10:42:10;;;;;;;6.40;2.40;;;14.00;58.40;;;;;;5051495;28;20037;-66
2020/12/25 10:44:37;;;;;;;3.15;1.73;;;14.00;57.20;;;;;;5055064;28;20600;-66
2020/12/25 10:47:03;;;;;;;6.78;2.53;;;13.90;56.90;;;;;;5054276;28;20519;-66
2020/12/25 10:49:29;;;;;;;6.55;2.47;;;13.80;56.40;;;;;;5052989;28;20067;-66
2020/12/25 10:51:54;;;;;;;7.07;1.95;;;13.60;56.40;;;;;;5052939;28;20126;-66
2020/12/25 10:54:20;;;;;;;5.22;1.55;;;13.70;56.20;;;;;;5054292;28;20550;-66
2020/12/25 10:56:46;;;;;;;9.07;1.95;;;13.60;55.10;;;;;;5043882;28;20040;-66
2020/12/25 10:59:12;;;;;;;4.97;1.70;;;13.50;54.70;;;;;;5053793;28;20040;-66
2020/12/25 11:01:38;;;;;;;5.80;1.90;;;13.30;54.70;;;;;;5050661;28;20061;-66
2020/12/25 11:04:04;;;;;;;7.50;2.25;;;13.20;54.40;;;;;;5055790;28;20485;-66
2020/12/25 11:06:39;;;;;;;4.53;2.20;;;13.10;54.10;;;;;;5053430;28;20037;-66
2020/12/25 11:09:06;;;;;;;4.50;1.52;;;13.00;54.00;;;;;;5039693;28;20056;-66
2020/12/25 11:11:34;;;;;;;5.95;1.65;;;13.00;54.10;;;;;;5051908;28;20040;-66
2020/12/25 11:14:02;;;;;;;3.63;1.77;;;12.90;53.90;;;;;;5053445;28;20044;-66
2020/12/25 11:16:30;;;;;;;3.63;1.80;;;12.90;54.20;;;;;;5054135;28;20032;-66
2020/12/25 11:18:58;;;;;;;9.95;1.83;;;12.90;54.90;;;;;;5054114;28;20067;-66
2020/12/25 11:21:29;;;;;;;1.65;1.42;;;13.20;55.10;;;;;;5042638;28;20226;-66
2020/12/25 11:23:55;;;;;;;3.72;2.05;;;13.70;54.40;;;;;;5038454;28;20040;-66
2020/12/25 11:26:33;;;;;;;9.20;3.80;;;14.00;53.50;;;;;;5045081;28;20037;-66
2020/12/25 11:29:01;;;;;;;6.93;2.45;;;14.30;52.70;;;;;;5036583;28;20246;-66
2020/12/25 11:31:28;;;;;;;4.95;1.50;;;14.50;52.40;;;;;;5029839;28;20043;-66
2020/12/25 11:33:54;;;;;;;4.70;1.98;;;14.80;51.40;;;;;;5038704;28;20067;-66
2020/12/25 11:36:21;;;;;;;5.85;1.58;;;14.90;51.10;;;;;;5046241;28;20067;-66
2020/12/25 11:38:47;;;;;;;8.23;1.67;;;15.10;50.70;;;;;;5048888;28;20085;-66
2020/12/25 11:41:15;;;;;;;2.63;0.95;;;15.50;50.40;;;;;;5043652;28;20044;-63
2020/12/25 11:43:41;;;;;;;1.70;1.17;;;15.80;49.20;;;;;;5042337;28;20081;-63
2020/12/25 11:46:07;;;;;;;4.75;1.60;;;16.00;48.80;;;;;;5044511;28;20504;-63
2020/12/25 11:48:34;;;;;;;7.05;1.50;;;16.30;48.30;;;;;;5039302;28;20282;-63
2020/12/25 11:51:00;;;;;;;1.65;1.15;;;16.60;47.80;;;;;;5042083;28;20033;-63
2020/12/25 11:53:28;;;;;;;2.38;1.20;;;17.20;47.40;;;;;;5044339;28;20110;-63
2020/12/25 11:55:54;;;;;;;8.63;3.30;;;17.80;46.40;;;;;;5042058;28;20036;-64
2020/12/25 11:58:20;;;;;;;8.63;2.45;;;18.60;45.10;;;;;;5041090;28;20044;-63
2020/12/25 12:00:46;;;;;;;3.95;1.95;;;19.30;43.40;;;;;;5044495;28;20466;-63
2020/12/25 12:03:12;;;;;;;4.38;1.40;;;19.80;42.20;;;;;;5043722;28;20041;-63
2020/12/25 12:05:44;;;;;;;6.40;1.45;;;20.30;40.80;;;;;;5047502;28;20039;-63
2020/12/25 12:08:11;;;;;;;8.13;1.20;;;20.70;39.40;;;;;;5041281;28;20058;-63
2020/12/25 12:10:38;;;;;;;5.63;1.35;;;21.00;38.40;;;;;;5020892;28;20037;-64
2020/12/25 12:13:04;;;;;;;4.70;1.35;;;21.30;37.40;;;;;;5035874;28;20068;-64
2020/12/25 12:15:40;;;;;;;6.88;1.63;;;21.60;36.90;;;;;;5035747;28;20041;-63
2020/12/25 12:18:07;;;;;;;5.85;1.30;;;21.80;35.90;;;;;;5025985;28;20043;-63
2020/12/25 12:20:35;;;;;;;4.70;1.10;;;22.00;35.50;;;;;;5030947;28;20162;-64
2020/12/25 12:23:02;;;;;;;5.50;1.90;;;21.90;34.60;;;;;;5038041;28;20068;-63
2020/12/25 12:25:27;;;;;;;2.88;1.10;;;21.60;34.40;;;;;;5041495;28;21269;-64
2020/12/25 12:27:54;;;;;;;3.20;0.82;;;21.00;34.80;;;;;;5046144;28;20033;-63
2020/12/25 12:30:19;;;;;;;3.28;0.90;;;20.30;35.60;;;;;;5044504;28;20252;-64
2020/12/25 12:32:45;;;;;;;3.95;1.20;;;19.70;36.30;;;;;;5050220;28;20474;-64
2020/12/25 12:35:10;;;;;;;7.93;1.17;;;19.20;36.80;;;;;;5033247;28;20092;-63
2020/12/25 12:37:36;;;;;;;1.85;1.20;;;18.90;38.00;;;;;;5052851;28;20114;-63
2020/12/25 12:40:05;;;;;;;8.45;1.05;;;18.50;37.70;;;;;;5049818;28;20068;-63
2020/12/25 12:42:33;;;;;;;7.15;1.25;;;18.10;38.40;;;;;;5051522;28;20029;-63
2020/12/25 12:44:59;;;;;;;6.20;1.38;;;17.60;38.90;;;;;;5032270;28;20040;-63
2020/12/25 12:47:27;;;;;;;6.13;1.17;;;17.20;39.40;;;;;;5047895;28;20052;-63
2020/12/25 12:49:53;;;;;;;4.60;0.80;;;16.90;39.90;;;;;;5050380;28;20044;-63